Scroll for more >

River gauges, storages, and weirs in the Murray–Darling Basin

Type Locationsort ascending River Water level Flow Volume Release Water temp Salinity Rainfall
Weirs Yarrawonga Weir Upstream Murray 120.22 m 20/06/2018 7:45 Not measured Not measured Not measured Not measured Not measured 0.2 mm 20/06/2018 9:00 Full data
Weirs Yarrawonga Weir Downstream Murray 1.09 m 20/06/2018 16:15 6054 ML/Day 20/06/2018 16:15 Not measured Not measured 10.0°C 20/06/2018 16:15 63.1 μS/cm 20/06/2018 16:15 Not measured Full data
River Gauge Yarrawonga Main Channel Murray 122.77 m 20/06/2018 15:45 Not measured Not measured 0.0 ML/d20/06/2018 15:45 Not measured Not measured Not measured Full data
River Gauge Wilcania Darling 0.61 m 20/06/2018 15:45 383 ML/Day 20/06/2018 15:45 Not measured Not measured 11.7°C 20/06/2018 16:00 889.9 μS/cm 20/06/2018 15:45 Not measured Full data
Weirs Wentworth Weir Murray 27.65 m 20/06/2018 15:45 Not measured Not measured 7079.6 ML/d20/06/2018 8:45 Not measured 110.0 μS/cm 20/06/2018 7:45 0.0 mm 19/06/2018 9:00 Full data
River Gauge Weir 32 Upstream Darling 1.28 m 20/06/2018 15:45 138 ML/Day 20/06/2018 15:45 Not measured Not measured 11.2°C 20/06/2018 15:45 765.7 μS/cm 20/06/2018 15:45 Not measured Full data
River Gauge Wakool Junction Murray 2.5 m 20/06/2018 15:45 5703 ML/Day 20/06/2018 15:45 Not measured Not measured 9.5°C 20/06/2018 15:45 94.4 μS/cm 20/06/2018 15:45 Not measured Full data
River Gauge Wakool Canal Wakool -0.54 m 20/06/2018 15:45 Not measured Not measured 0.0 ML/d19/06/2018 8:45 Not measured Not measured Not measured Full data
Weirs Torrumbarry Weir Upstream Murray 85.77 m 20/06/2018 16:00 Not measured 34 GL 20/06/2018 8:45 Not measured 9.9°C 20/06/2018 8:45 95.2 μS/cm 20/06/2018 13:45 0.0 mm 20/06/2018 9:00 Full data
Weirs Torrumbarry Weir Upstream Murray 85.77 m 20/06/2018 16:00 Not measured 34 GL 20/06/2018 8:45 Not measured 9.9°C 20/06/2018 8:45 95.2 μS/cm 20/06/2018 13:45 0.0 mm 20/06/2018 9:00 Full data
Weirs Torrumbarry Weir Upstream Murray 85.77 m 20/06/2018 16:00 Not measured 34 GL 20/06/2018 8:45 Not measured 9.9°C 20/06/2018 8:45 95.2 μS/cm 20/06/2018 13:45 0.0 mm 20/06/2018 9:00 Full data
Weirs Torrumbarry Weir Downstream Murray 1.31 m 20/06/2018 15:45 3143 ML/Day 20/06/2018 15:45 Not measured Not measured 10.1°C 20/06/2018 15:45 96.0 μS/cm 20/06/2018 15:45 Not measured Full data
Weirs Torrumbarry Weir Downstream Murray 1.31 m 20/06/2018 15:45 3143 ML/Day 20/06/2018 15:45 Not measured Not measured 10.1°C 20/06/2018 15:45 96.0 μS/cm 20/06/2018 15:45 Not measured Full data
Weirs Torrumbarry Weir Downstream Murray 1.31 m 20/06/2018 15:45 3143 ML/Day 20/06/2018 15:45 Not measured Not measured 10.1°C 20/06/2018 15:45 96.0 μS/cm 20/06/2018 15:45 Not measured Full data
River Gauge Torrumbarry Headworks Murray 84.23 m 20/06/2018 16:00 Not measured Not measured 977.2 ML/d20/06/2018 16:15 Not measured Not measured Not measured Full data
River Gauge Tocumwal Murray 1.46 m 20/06/2018 15:45 4897 ML/Day 20/06/2018 15:45 Not measured Not measured 9.2°C 20/06/2018 15:45 72.4 μS/cm 20/06/2018 15:45 Not measured Full data
River Gauge Tauwitchere Barrage Murray 0.62 m 20/06/2018 15:45 Not measured Not measured Not measured Not measured Not measured Not measured Full data
River Gauge Tallandoon Mitta 1.55 m 20/06/2018 15:45 786 ML/Day 20/06/2018 15:45 Not measured Not measured 8.9°C 20/06/2018 15:45 46.8 μS/cm 20/06/2018 15:45 Not measured Full data
River Gauge Tallandoon Mitta 1.55 m 20/06/2018 15:45 786 ML/Day 20/06/2018 15:45 Not measured Not measured 8.9°C 20/06/2018 15:45 46.8 μS/cm 20/06/2018 15:45 Not measured Full data
River Gauge Swan Hill Murray 0.94 m 20/06/2018 15:45 4180 ML/Day 20/06/2018 15:45 Not measured Not measured 9.3°C 20/06/2018 15:45 99.6 μS/cm 20/06/2018 15:45 Not measured Full data
River Gauge Stoney Crossing Murray 1.34 m 20/06/2018 15:45 286 ML/Day 20/06/2018 15:45 Not measured 294.7 ML/d20/06/2018 7:45 10.0°C 20/06/2018 15:45 320.0 μS/cm 20/06/2018 15:45 Not measured Full data
Weirs Steven's Weir Upstream Wakool 1.38 m 20/06/2018 16:30 Not measured Not measured Not measured Not measured Not measured Not measured Full data
Weirs Steven's Weir Downstream Wakool 1.3 m 20/06/2018 15:45 992 ML/Day 20/06/2018 15:45 Not measured Not measured 9.9°C 20/06/2018 15:45 60.9 μS/cm 20/06/2018 15:45 0.0 mm 2/05/2018 9:00 Full data
River Gauge Rufus River Murray 20.07 m 20/06/2018 7:45 Not measured Not measured 983.0 ML/d20/06/2018 7:45 Not measured 216.0 μS/cm 20/06/2018 15:45 Not measured Full data
River Gauge Rochester Campaspe 1.76 m 20/06/2018 15:45 110 ML/Day 20/06/2018 15:45 Not measured Not measured 9.2°C 20/06/2018 15:45 449.9 μS/cm 20/06/2018 15:45 0.2 mm 20/06/2018 9:00 Full data
River Gauge Pinegrove Murray 1.25 m 20/06/2018 16:15 391 ML/Day 20/06/2018 16:15 Not measured Not measured 5.9°C 20/06/2018 16:15 74.2 μS/cm 20/06/2018 16:15 0.2 mm 20/06/2018 9:00 Full data
River Gauge Peechelba Ovens 127.86 m 20/06/2018 15:45 3082 ML/Day 20/06/2018 15:45 Not measured Not measured 8.3°C 20/06/2018 15:45 41.7 μS/cm 20/06/2018 15:45 Not measured Full data
River Gauge Murray Bridge Murray 0.57 m 20/06/2018 15:45 Not measured Not measured Not measured 12.7°C 20/06/2018 15:45 405.5 μS/cm 20/06/2018 15:45 Not measured Full data
River Gauge Mundoo Barrage Murray 0.65 m 20/06/2018 7:45 Not measured Not measured Not measured Not measured Not measured Not measured Full data
River Gauge Mulwala Canal Murray Not measured Not measured Not measured 0.0 ML/d20/06/2018 7:45 Not measured Not measured Not measured Full data
River Gauge Morgan Downstream Murray Not measured Not measured Not measured 3042.4 ML/d20/06/2018 15:45 Not measured 414.2 μS/cm 20/06/2018 15:45 Not measured Full data
Weirs Mildura Weir downstream Murray 30.96 m 20/06/2018 15:45 Not measured Not measured Not measured 11.2°C 20/06/2018 15:45 116.7 μS/cm 20/06/2018 15:45 Not measured Full data
Storage Menindee Lakes Darling Not measured Not measured 205 GL 20/06/2018 7:45 Not measured Not measured Not measured Not measured Full data
River Gauge McCoy Bridge Goulburn 1.58 m 20/06/2018 15:45 1107 ML/Day 20/06/2018 15:45 Not measured Not measured 9.4°C 20/06/2018 15:45 97.5 μS/cm 20/06/2018 15:45 Not measured Full data
Weirs Lock 9 Upstream Murray 27.37 m 20/06/2018 15:45 Not measured Not measured Not measured 11.3°C 20/06/2018 15:45 112.0 μS/cm 20/06/2018 15:45 Not measured Full data
Weirs Lock 9 Downstream Murray 24.37 m 20/06/2018 15:45 Not measured Not measured Not measured Not measured Not measured Not measured Full data
Weirs Lock 8 Upstream Murray 24.36 m 20/06/2018 15:45 Not measured Not measured Not measured 11.6°C 20/06/2018 15:45 114.1 μS/cm 20/06/2018 15:45 Not measured Full data
Weirs Lock 7 Upstream Murray 22.09 m 20/06/2018 15:45 Not measured Not measured Not measured 11.6°C 20/06/2018 15:45 115.0 μS/cm 20/06/2018 15:45 Not measured Full data
Weirs Lock 7 Downstream Murray 20.03 m 20/06/2018 15:45 Not measured Not measured Not measured Not measured Not measured Not measured Full data
Weirs Lock 6 Upstream Murray 19.17 m 20/06/2018 15:45 Not measured Not measured Not measured 11.8°C 20/06/2018 15:45 174.9 μS/cm 20/06/2018 15:45 Not measured Full data
Weirs Lock 6 Downstream Murray 16.28 m 20/06/2018 15:45 Not measured Not measured Not measured Not measured Not measured Not measured Full data
Weirs Lock 5 Upstream Murray 16.3 m 20/06/2018 15:45 Not measured Not measured Not measured 12.2°C 20/06/2018 15:45 260.5 μS/cm 20/06/2018 15:45 Not measured Full data
Weirs Lock 5 Downstream Murray 13.28 m 20/06/2018 15:45 Not measured Not measured Not measured Not measured Not measured Not measured Full data
Weirs Lock 4 Upstream Murray 13.22 m 20/06/2018 15:45 Not measured Not measured Not measured Not measured Not measured Not measured Full data
Weirs Lock 4 Downstream Murray 10.24 m 20/06/2018 15:45 Not measured Not measured Not measured Not measured Not measured Not measured Full data
Weirs Lock 3 Upstream Murray 9.8 m 20/06/2018 15:45 Not measured Not measured Not measured Not measured Not measured Not measured Full data
Weirs Lock 3 Downstream Murray 6.29 m 20/06/2018 15:45 Not measured Not measured Not measured Not measured Not measured Not measured Full data
Weirs Lock 2 Upstream Murray 6.14 m 20/06/2018 16:00 Not measured Not measured Not measured 12.4°C 20/06/2018 16:00 414.0 μS/cm 20/06/2018 16:00 Not measured Full data
Weirs Lock 2 Downstream Murray 3.35 m 20/06/2018 16:00 Not measured Not measured Not measured Not measured Not measured Not measured Full data
Weirs Lock 1 Upstream Murray 3.25 m 20/06/2018 15:45 Not measured Not measured Not measured 12.6°C 20/06/2018 15:45 386.1 μS/cm 20/06/2018 15:45 Not measured Full data
Weirs Lock 1 Downstream Murray 0.54 m 20/06/2018 15:45 Not measured Not measured 4002.3 ML/d20/06/2018 7:45 Not measured Not measured Not measured Full data
Storage Lake Victoria Murray 24.16 m 20/06/2018 15:45 Not measured 361 GL 20/06/2018 15:45 Not measured 10.6°C 20/06/2018 15:45 187.1 μS/cm 20/06/2018 15:45 Not measured Full data
River Gauge Lake Alexandrina Murray 0.62 m 20/06/2018 5:45 Not measured 1528 GL 20/06/2018 5:45 Not measured Not measured 814.5 μS/cm 20/06/2018 15:45 Not measured Full data
River Gauge Lake Albert Murray 0.62 m 20/06/2018 5:45 Not measured 249 GL 20/06/2018 5:45 Not measured Not measured Not measured Not measured Full data
River Gauge Kerang Loddon 0.42 m 20/06/2018 15:45 311 ML/Day 20/06/2018 15:45 Not measured Not measured 8.7°C 20/06/2018 15:45 344.3 μS/cm 20/06/2018 15:45 Not measured Full data
River Gauge Jingellic Murray 2.36 m 20/06/2018 15:45 10425 ML/Day 20/06/2018 15:45 Not measured Not measured 8.5°C 20/06/2018 15:45 29.2 μS/cm 20/06/2018 15:45 0.2 mm 20/06/2018 9:00 Full data
Storage Hume Dam Murray 180.79 m 20/06/2018 16:15 Not measured 1223 GL 20/06/2018 16:15 600.0 ML/d20/06/2018 8:00 Not measured Not measured 0.0 mm 20/06/2018 9:00 Full data
River Gauge Hinnomunjie Mitta 0.92 m 20/06/2018 15:45 1028 ML/Day 20/06/2018 15:45 Not measured Not measured 5.0°C 20/06/2018 15:45 51.0 μS/cm 20/06/2018 15:45 0.0 mm 20/06/2018 9:00 Full data
River Gauge Gulpa Creek Offtake Murray 2.24 m 20/06/2018 15:45 235 ML/Day 20/06/2018 15:45 Not measured Not measured Not measured Not measured Not measured Full data
River Gauge Frenchman Creek Murray 27.29 m 20/06/2018 7:45 Not measured Not measured 2915.4 ML/d20/06/2018 7:45 Not measured Not measured Not measured Full data
River Gauge Flow to South Australia Murray Not measured Not measured Not measured 4370.5 ML/d20/06/2018 7:45 Not measured Not measured Not measured Full data
Weirs Euston Weir Upstream Murray 47.25 m 20/06/2018 8:45 Not measured 32 GL 20/06/2018 7:45 Not measured Not measured Not measured 0.0 mm 19/06/2018 9:00 Full data
Weirs Euston Weir Downstream Murray 43.19 m 20/06/2018 15:45 6586 ML/Day 20/06/2018 15:45 Not measured Not measured 10.3°C 20/06/2018 15:45 95.0 μS/cm 20/06/2018 15:45 Not measured Full data
River Gauge Edward River Offtake Murray 1.83 m 20/06/2018 16:30 820 ML/Day 20/06/2018 16:30 Not measured Not measured 9.3°C 20/06/2018 13:45 53.9 μS/cm 20/06/2018 13:45 Not measured Full data
River Gauge Edward Escape Wakool -1.21 m 20/06/2018 15:45 1 ML/Day 19/06/2018 7:45 Not measured Not measured 12.0°C 20/06/2018 15:45 20.2 μS/cm 20/06/2018 15:45 Not measured Full data
River Gauge Echuca Wharf Murray 86.17 m 20/06/2018 14:45 Not measured Not measured Not measured Not measured Not measured Not measured Full data
River Gauge Doctors Point Murray 1.68 m 20/06/2018 16:15 2079 ML/Day 20/06/2018 16:15 Not measured Not measured 8.3°C 20/06/2018 16:15 52.5 μS/cm 20/06/2018 16:15 Not measured Full data
Storage Dartmouth Dam Mitta 479.07 m 20/06/2018 16:15 Not measured 3417 GL 20/06/2018 16:15 Not measured Not measured Not measured Not measured Full data
Storage Dartmouth Dam Mitta 479.07 m 20/06/2018 16:15 Not measured 3417 GL 20/06/2018 16:15 Not measured Not measured Not measured Not measured Full data
River Gauge Corowa Murray 0.85 m 20/06/2018 16:15 2399 ML/Day 20/06/2018 16:15 Not measured Not measured 9.6°C 20/06/2018 16:15 50.3 μS/cm 20/06/2018 16:15 Not measured Full data
River Gauge Colignan Murray 2.01 m 20/06/2018 15:45 7028 ML/Day 20/06/2018 15:45 Not measured Not measured 9.9°C 20/06/2018 15:45 98.1 μS/cm 20/06/2018 15:45 Not measured Full data
River Gauge Colemans Mitta 1 m 20/06/2018 16:15 297 ML/Day 20/06/2018 16:15 Not measured Not measured 9.5°C 20/06/2018 15:45 41.8 μS/cm 20/06/2018 15:45 Not measured Full data
River Gauge Colemans Mitta 1 m 20/06/2018 16:15 297 ML/Day 20/06/2018 16:15 Not measured Not measured 9.5°C 20/06/2018 15:45 41.8 μS/cm 20/06/2018 15:45 Not measured Full data
River Gauge Burtundy Darling 0.68 m 20/06/2018 16:15 60 ML/Day 20/06/2018 16:15 Not measured Not measured 10.3°C 20/06/2018 16:15 716.9 μS/cm 20/06/2018 16:15 Not measured Full data
River Gauge Bringenbrong Bridge Murray 2.08 m 20/06/2018 16:15 8061 ML/Day 20/06/2018 16:15 Not measured Not measured Not measured Not measured Not measured Full data
River Gauge Biggara Murray 0.53 m 20/06/2018 16:15 676 ML/Day 20/06/2018 16:15 Not measured Not measured 6.5°C 20/06/2018 16:15 53.5 μS/cm 20/06/2018 16:15 0.2 mm 20/06/2018 9:00 Full data
River Gauge Bandiana Kiewa 1.8 m 20/06/2018 15:45 1657 ML/Day 20/06/2018 15:45 Not measured Not measured 7.2°C 20/06/2018 15:45 41.3 μS/cm 20/06/2018 15:45 Not measured Full data
River Gauge Balranald Murrumbidgee 0.86 m 20/06/2018 15:45 458 ML/Day 20/06/2018 15:45 Not measured Not measured 10.3°C 20/06/2018 15:45 145.9 μS/cm 20/06/2018 15:45 Not measured Full data
River Gauge Albury (Union Bridge) Murray 0.86 m 20/06/2018 16:15 Not measured Not measured Not measured 8.3°C 20/06/2018 16:15 63.1 μS/cm 20/06/2018 16:15 Not measured Full data